Time;durP1;ratioP1;P1;durP2;ratioP2;P2;SDS_P1;SDS_P2;PMS_P1;PMS_P2;Temp;Humidity;BMP_temperature;BMP_pressure;BME280_temperature;BME280_humidity;BME280_pressure;Samples;Min_cycle;Max_cycle;Signal;HPM_P1;HPM_P2
2022/11/22 00:00:59;;;;;;;0.60;0.60;;;;;;;4.90;100.00;98601.16;5112354;28;20740;-62
2022/11/22 00:03:26;;;;;;;0.97;0.97;;;;;;;4.89;100.00;98604.63;5112399;28;20228;-57
2022/11/22 00:05:52;;;;;;;1.00;0.80;;;;;;;4.91;100.00;98606.13;5112215;28;20204;-57
2022/11/22 00:08:20;;;;;;;2.23;0.90;;;;;;;4.93;100.00;98606.06;5112543;28;20217;-62
2022/11/22 00:10:48;;;;;;;0.63;0.63;;;;;;;4.94;100.00;98610.22;5112197;28;20713;-57
2022/11/22 00:13:16;;;;;;;0.53;0.53;;;;;;;4.83;100.00;98610.84;5112241;28;20320;-62
2022/11/22 00:15:42;;;;;;;0.93;0.93;;;;;;;4.82;100.00;98613.44;5111953;28;20194;-62
2022/11/22 00:18:09;;;;;;;0.30;0.30;;;;;;;4.84;100.00;98614.19;5112287;27;20221;-62
2022/11/22 00:20:36;;;;;;;0.50;0.50;;;;;;;4.76;100.00;98607.81;5111032;28;20247;-57
2022/11/22 00:23:03;;;;;;;0.30;0.30;;;;;;;4.72;100.00;98608.91;5112186;28;20282;-62
2022/11/22 00:25:32;;;;;;;0.37;0.37;;;;;;;4.68;100.00;98611.69;5111972;28;20197;-62
2022/11/22 00:27:58;;;;;;;3.03;1.20;;;;;;;4.59;100.00;98602.88;5111852;28;20205;-62
2022/11/22 00:30:25;;;;;;;1.47;0.97;;;;;;;4.59;100.00;98597.00;5111837;28;20216;-57
2022/11/22 00:32:52;;;;;;;0.23;0.23;;;;;;;4.51;100.00;98610.09;5111698;28;20304;-57
2022/11/22 00:35:19;;;;;;;0.20;0.20;;;;;;;4.49;100.00;98611.91;5111749;28;20734;-57
2022/11/22 00:37:45;;;;;;;0.30;0.30;;;;;;;4.46;100.00;98612.06;5111687;28;20649;-62
2022/11/22 00:40:12;;;;;;;0.73;0.73;;;;;;;4.44;100.00;98614.66;5111842;28;20205;-62
2022/11/22 00:42:41;;;;;;;0.30;0.30;;;;;;;4.39;100.00;98610.75;5111525;28;20746;-57
2022/11/22 00:45:08;;;;;;;0.60;0.60;;;;;;;4.34;100.00;98610.22;5111755;28;20205;-57
2022/11/22 00:47:35;;;;;;;0.27;0.27;;;;;;;4.32;100.00;98610.28;5111441;28;20205;-57
2022/11/22 00:50:02;;;;;;;0.50;0.47;;;;;;;4.31;100.00;98606.94;5111527;28;20224;-57
2022/11/22 00:52:29;;;;;;;1.07;0.43;;;;;;;4.34;100.00;98612.75;5111346;28;20756;-57
2022/11/22 00:54:55;;;;;;;0.80;0.80;;;;;;;4.26;100.00;98606.38;5111576;28;20724;-62
2022/11/22 00:57:22;;;;;;;0.53;0.53;;;;;;;4.22;100.00;98604.09;5111303;28;20276;-57
2022/11/22 00:59:50;;;;;;;0.47;0.47;;;;;;;4.20;100.00;98599.09;5111196;28;20217;-62
2022/11/22 01:02:17;;;;;;;0.57;0.57;;;;;;;4.15;100.00;98598.53;5111307;28;20202;-57
2022/11/22 01:04:44;;;;;;;0.57;0.50;;;;;;;4.12;100.00;98601.22;5111020;28;20228;-61
2022/11/22 01:07:11;;;;;;;0.47;0.47;;;;;;;4.17;100.00;98608.59;5111152;27;20568;-57
2022/11/22 01:09:38;;;;;;;1.43;0.53;;;;;;;4.23;100.00;98605.72;5111022;28;20224;-62
2022/11/22 01:12:05;;;;;;;1.77;0.90;;;;;;;4.13;100.00;98604.56;5111076;28;20201;-62
2022/11/22 01:14:32;;;;;;;0.60;0.60;;;;;;;4.11;100.00;98606.38;5110790;28;20720;-62
2022/11/22 01:17:00;;;;;;;0.30;0.30;;;;;;;4.15;100.00;98608.66;5111171;28;20729;-57
2022/11/22 01:19:27;;;;;;;0.40;0.40;;;;;;;4.13;100.00;98613.00;5110719;28;20801;-57
2022/11/22 01:21:53;;;;;;;0.97;0.57;;;;;;;4.16;100.00;98615.38;5110943;28;20681;-57
2022/11/22 01:24:20;;;;;;;0.60;0.60;;;;;;;3.97;100.00;98607.13;5110942;28;20313;-57
2022/11/22 01:26:47;;;;;;;0.73;0.43;;;;;;;3.95;100.00;98602.13;5110762;28;20732;-57
2022/11/22 01:29:14;;;;;;;0.40;0.40;;;;;;;3.88;100.00;98607.59;5111202;28;20217;-57
2022/11/22 01:31:40;;;;;;;1.13;0.43;;;;;;;3.84;100.00;98605.22;5110579;28;20197;-62
2022/11/22 01:34:09;;;;;;;0.67;0.67;;;;;;;3.76;100.00;98607.34;5110918;28;20241;-57
2022/11/22 01:36:35;;;;;;;0.33;0.17;;;;;;;3.67;100.00;98612.88;5110658;28;20201;-57
2022/11/22 01:39:02;;;;;;;0.40;0.40;;;;;;;3.67;100.00;98607.81;5110983;28;20221;-57
2022/11/22 01:41:29;;;;;;;0.70;0.70;;;;;;;3.62;100.00;98602.19;5110371;28;20708;-62
2022/11/22 01:43:56;;;;;;;0.57;0.57;;;;;;;3.69;100.00;98606.00;5110313;28;20759;-61
2022/11/22 01:46:32;;;;;;;0.37;0.37;;;;;;;3.69;100.00;98611.06;5110384;28;20208;-57
2022/11/22 01:49:04;;;;;;;0.10;0.10;;;;;;;3.67;100.00;98609.53;5110402;28;20225;-57
2022/11/22 01:51:36;;;;;;;0.57;0.47;;;;;;;3.63;100.00;98603.81;5110331;28;20201;-57
2022/11/22 01:54:09;;;;;;;0.83;0.40;;;;;;;3.63;100.00;98601.28;5110851;28;20225;-57
2022/11/22 01:56:38;;;;;;;0.33;0.33;;;;;;;3.58;100.00;98604.06;5110334;28;20212;-57
2022/11/22 01:59:09;;;;;;;0.40;0.33;;;;;;;3.60;100.00;98607.31;5110509;28;20225;-62
2022/11/22 02:01:36;;;;;;;0.30;0.30;;;;;;;3.56;100.00;98603.31;5110229;28;20204;-62
2022/11/22 02:04:06;;;;;;;0.20;0.20;;;;;;;3.55;100.00;98603.38;5110314;28;20226;-57
2022/11/22 02:06:38;;;;;;;0.77;0.77;;;;;;;3.57;100.00;98606.66;5110088;28;20197;-62
2022/11/22 02:09:10;;;;;;;0.47;0.47;;;;;;;3.58;100.00;98603.25;5110259;28;20624;-57
2022/11/22 02:11:41;;;;;;;0.83;0.83;;;;;;;3.55;100.00;98603.38;5110062;28;20291;-57
2022/11/22 02:14:09;;;;;;;0.07;0.07;;;;;;;3.48;100.00;98607.94;5110553;28;20229;-58
2022/11/22 02:16:37;;;;;;;1.20;0.57;;;;;;;3.44;100.00;98600.59;5110047;28;20287;-57
2022/11/22 02:19:05;;;;;;;0.40;0.40;;;;;;;3.42;100.00;98604.91;5110384;28;20250;-62
2022/11/22 02:21:34;;;;;;;0.10;0.10;;;;;;;3.44;100.00;98606.47;5110019;28;20665;-57
2022/11/22 02:24:09;;;;;;;1.30;1.20;;;;;;;3.46;100.00;98608.91;5110444;28;20661;-57
2022/11/22 02:26:37;;;;;;;1.57;0.80;;;;;;;3.45;100.00;98612.34;5109890;28;20199;-62
2022/11/22 02:29:07;;;;;;;0.47;0.47;;;;;;;3.37;100.00;98615.25;5110321;28;20224;-56
2022/11/22 02:31:45;;;;;;;0.20;0.20;;;;;;;3.38;100.00;98611.84;5110003;28;20193;-57
2022/11/22 02:34:13;;;;;;;0.47;0.47;;;;;;;3.24;100.00;98607.47;5110037;28;20233;-62
2022/11/22 02:36:45;;;;;;;0.20;0.20;;;;;;;3.31;100.00;98613.84;5109772;28;20669;-57
2022/11/22 02:39:14;;;;;;;1.50;1.03;;;;;;;3.30;100.00;98612.22;5109820;28;20217;-57
2022/11/22 02:41:44;;;;;;;0.30;0.30;;;;;;;3.25;100.00;98616.66;5109773;28;20250;-57
2022/11/22 02:44:13;;;;;;;3.60;1.07;;;;;;;3.11;100.00;98621.59;5112057;28;20760;-57
2022/11/22 02:46:47;;;;;;;0.10;0.10;;;;;;;3.02;100.00;98624.56;5113717;28;20201;-57
2022/11/22 02:49:16;;;;;;;1.00;0.50;;;;;;;2.98;100.00;98615.53;5114370;28;20220;-62
2022/11/22 02:51:43;;;;;;;0.47;0.47;;;;;;;3.01;100.00;98613.66;5114019;28;20556;-62
2022/11/22 02:54:10;;;;;;;0.23;0.23;;;;;;;3.14;100.00;98606.28;5114032;28;20224;-57
2022/11/22 02:56:37;;;;;;;0.60;0.60;;;;;;;3.13;100.00;98613.06;5113619;28;20194;-57
2022/11/22 02:59:05;;;;;;;0.30;0.30;;;;;;;3.09;100.00;98613.28;5114224;28;20223;-56
2022/11/22 03:01:32;;;;;;;1.00;0.73;;;;;;;3.04;100.00;98616.03;5113749;28;20248;-62
2022/11/22 03:03:59;;;;;;;0.43;0.43;;;;;;;2.89;100.00;98620.13;5113421;28;20229;-62
2022/11/22 03:06:26;;;;;;;0.20;0.20;;;;;;;2.86;100.00;98610.19;5113654;28;20189;-61
2022/11/22 03:08:52;;;;;;;0.30;0.30;;;;;;;2.87;100.00;98611.81;5113301;27;20223;-57
2022/11/22 03:11:19;;;;;;;0.87;0.87;;;;;;;2.89;100.00;98619.31;5113625;28;20197;-62
2022/11/22 03:13:46;;;;;;;0.20;0.20;;;;;;;2.89;100.00;98622.66;5113678;28;20240;-57
2022/11/22 03:16:14;;;;;;;1.57;0.40;;;;;;;2.88;100.00;98618.50;5113539;28;20201;-56
2022/11/22 03:18:41;;;;;;;0.30;0.30;;;;;;;2.87;100.00;98621.91;5113249;28;20221;-62
2022/11/22 03:21:09;;;;;;;1.17;0.70;;;;;;;2.95;100.00;98624.88;5113325;28;20688;-57
2022/11/22 03:23:36;;;;;;;0.30;0.30;;;;;;;2.92;100.00;98625.03;5113044;27;20784;-62
2022/11/22 03:26:08;;;;;;;0.63;0.63;;;;;;;2.95;100.00;98619.81;5113329;28;20205;-62
2022/11/22 03:28:35;;;;;;;0.30;0.30;;;;;;;2.92;100.00;98622.50;5113050;28;20312;-57
2022/11/22 03:31:05;;;;;;;0.20;0.20;;;;;;;2.87;100.00;98626.94;5113190;28;20649;-62
2022/11/22 03:33:33;;;;;;;0.30;0.30;;;;;;;2.82;100.00;98618.81;5112850;28;20285;-57
2022/11/22 03:36:00;;;;;;;0.70;0.50;;;;;;;2.77;100.00;98630.81;5113163;28;20293;-62
2022/11/22 03:38:26;;;;;;;0.30;0.30;;;;;;;2.82;100.00;98628.06;5112720;28;20217;-57
2022/11/22 03:40:53;;;;;;;1.00;0.87;;;;;;;2.81;100.00;98622.19;5112723;28;20709;-57
2022/11/22 03:43:20;;;;;;;2.53;0.90;;;;;;;2.77;100.00;98625.78;5112980;28;20721;-62
2022/11/22 03:45:48;;;;;;;0.93;0.93;;;;;;;2.78;100.00;98627.41;5112747;28;20632;-62
2022/11/22 03:48:15;;;;;;;0.20;0.20;;;;;;;2.82;100.00;98628.91;5112793;28;20602;-62
2022/11/22 03:50:43;;;;;;;0.30;0.30;;;;;;;2.83;100.00;98630.53;5112732;28;20197;-57
2022/11/22 03:53:10;;;;;;;1.70;0.87;;;;;;;2.81;100.00;98627.25;5112793;28;20239;-57
2022/11/22 03:55:37;;;;;;;0.43;0.43;;;;;;;2.80;100.00;98630.66;5112480;28;20732;-62
2022/11/22 03:58:04;;;;;;;0.10;0.10;;;;;;;2.78;100.00;98632.44;5112748;28;20217;-62
2022/11/22 04:00:32;;;;;;;0.40;0.40;;;;;;;2.78;100.00;98632.44;5112668;27;20209;-62
2022/11/22 04:02:58;;;;;;;1.00;0.90;;;;;;;2.70;100.00;98642.09;5112172;28;20197;-62
2022/11/22 04:05:25;;;;;;;1.90;0.40;;;;;;;2.70;100.00;98649.66;5112292;27;20571;-62
2022/11/22 04:07:55;;;;;;;0.83;0.83;;;;;;;2.78;100.00;98647.59;5112178;27;20201;-57
2022/11/22 04:10:21;;;;;;;1.17;0.50;;;;;;;2.71;100.00;98654.66;5112502;28;20197;-56
2022/11/22 04:12:48;;;;;;;0.60;0.60;;;;;;;2.70;100.00;98650.47;5112297;28;20201;-57
2022/11/22 04:15:14;;;;;;;0.20;0.20;;;;;;;2.68;100.00;98652.25;5112053;28;20236;-62
2022/11/22 04:17:47;;;;;;;0.60;0.60;;;;;;;2.66;100.00;98654.03;5111984;28;20201;-62
2022/11/22 04:23:04;;;;;;;0.40;0.40;;;;;;;2.67;100.00;98644.75;5112141;28;20220;-62
2022/11/22 04:25:32;;;;;;;0.77;0.77;;;;;;;2.58;100.00;98637.63;5112182;28;20201;-57
2022/11/22 04:27:59;;;;;;;0.63;0.63;;;;;;;2.56;100.00;98649.47;5111692;28;20205;-57
2022/11/22 04:32:44;;;;;;;0.40;0.40;;;;;;;2.53;100.00;98642.06;5112115;28;20201;-57
2022/11/22 04:33:14;;;;;;;2.57;0.63;;;;;;;2.51;100.00;98643.84;5111635;28;20221;-62
2022/11/22 04:35:42;;;;;;;0.60;0.60;;;;;;;2.52;100.00;98641.25;5111675;28;20233;-62
2022/11/22 04:38:11;;;;;;;0.40;0.40;;;;;;;2.49;100.00;98651.47;5111775;28;20216;-57
2022/11/22 04:40:39;;;;;;;0.27;0.27;;;;;;;2.47;100.00;98648.19;5111791;28;20201;-56
2022/11/22 04:45:56;;;;;;;0.23;0.23;;;;;;;2.48;100.00;98655.72;5071886;28;20749;-62
2022/11/22 04:48:22;;;;;;;0.53;0.53;;;;;;;2.49;100.00;98654.81;5111575;28;20221;-57
2022/11/22 04:53:36;;;;;;;0.60;0.60;;;;;;;2.36;100.00;98666.38;5111569;28;20290;-56
2022/11/22 04:56:02;;;;;;;0.40;0.40;;;;;;;2.29;100.00;98665.00;5111444;27;20209;-57
2022/11/22 04:58:29;;;;;;;0.40;0.40;;;;;;;2.31;100.00;98673.31;5111177;28;20232;-56
2022/11/22 05:00:56;;;;;;;0.57;0.57;;;;;;;2.35;100.00;98682.38;5111251;27;20204;-61
2022/11/22 05:03:23;;;;;;;0.87;0.87;;;;;;;2.41;100.00;98678.75;5111032;28;20243;-62
2022/11/22 05:05:50;;;;;;;0.43;0.43;;;;;;;2.42;100.00;98686.28;5110325;28;20625;-56
2022/11/22 05:08:16;;;;;;;0.10;0.10;;;;;;;2.40;100.00;98693.09;5110993;28;20244;-62
2022/11/22 05:10:57;;;;;;;0.10;0.10;;;;;;;2.44;100.00;98679.47;5111066;28;20200;-57
2022/11/22 05:13:26;;;;;;;0.60;0.60;;;;;;;2.53;100.00;98682.44;5111481;28;20867;-56
2022/11/22 05:15:53;;;;;;;0.33;0.33;;;;;;;2.53;100.00;98690.00;5110822;28;20570;-56
2022/11/22 05:18:21;;;;;;;0.27;0.27;;;;;;;2.56;100.00;98687.34;5110841;28;20221;-62
2022/11/22 05:20:48;;;;;;;0.50;0.50;;;;;;;2.62;100.00;98682.03;5110789;28;20193;-57
2022/11/22 05:26:01;;;;;;;0.90;0.67;;;;;;;2.69;100.00;98683.38;5110897;28;20744;-57
2022/11/22 05:28:28;;;;;;;0.90;0.90;;;;;;;2.75;100.00;98688.13;5110471;27;20225;-57
2022/11/22 05:30:55;;;;;;;0.63;0.63;;;;;;;2.81;100.00;98687.84;5110755;28;20229;-57
2022/11/22 05:33:22;;;;;;;0.87;0.87;;;;;;;2.89;100.00;98695.06;5110506;28;20248;-56
2022/11/22 05:35:49;;;;;;;1.00;0.80;;;;;;;2.89;100.00;98690.00;5110447;28;20319;-62
2022/11/22 05:38:16;;;;;;;1.20;1.10;;;;;;;2.91;100.00;98700.84;5110758;28;20224;-57
2022/11/22 05:40:43;;;;;;;0.20;0.20;;;;;;;2.95;100.00;98698.09;5110516;28;20236;-62
2022/11/22 05:43:11;;;;;;;0.37;0.37;;;;;;;2.95;100.00;98705.69;5110812;28;20773;-62
2022/11/22 05:45:37;;;;;;;0.60;0.33;;;;;;;2.98;100.00;98714.00;5110409;28;20219;-62
2022/11/22 05:48:04;;;;;;;0.73;0.60;;;;;;;2.95;100.00;98720.81;5110594;28;20213;-62
2022/11/22 05:50:31;;;;;;;1.40;1.10;;;;;;;3.00;100.00;98722.34;5110661;28;20669;-57
2022/11/22 05:53:00;;;;;;;0.67;0.67;;;;;;;3.00;100.00;98722.34;5110539;28;20215;-62
2022/11/22 05:55:27;;;;;;;0.27;0.27;;;;;;;3.05;100.00;98730.50;5110536;28;20232;-57
2022/11/22 05:57:54;;;;;;;0.37;0.37;;;;;;;3.11;100.00;98735.25;5110094;28;20272;-57
2022/11/22 06:00:23;;;;;;;0.20;0.20;;;;;;;3.13;100.00;98734.28;5110312;28;20189;-62
2022/11/22 06:02:49;;;;;;;0.30;0.30;;;;;;;3.16;100.00;98738.38;5110229;28;20662;-58
2022/11/22 06:05:16;;;;;;;0.53;0.53;;;;;;;3.22;100.00;98743.13;5110133;28;20198;-61
2022/11/22 06:07:43;;;;;;;0.23;0.23;;;;;;;3.28;100.00;98742.84;5110293;28;20251;-57
2022/11/22 06:10:10;;;;;;;0.50;0.50;;;;;;;3.36;100.00;98735.72;5110404;28;20629;-57
2022/11/22 06:12:37;;;;;;;0.17;0.17;;;;;;;3.35;100.00;98734.09;5110192;28;20676;-62
2022/11/22 06:15:04;;;;;;;0.30;0.30;;;;;;;3.47;100.00;98736.91;5110171;28;20240;-57
2022/11/22 06:17:33;;;;;;;0.37;0.37;;;;;;;3.58;100.00;98745.59;5110217;28;20204;-62
2022/11/22 06:19:59;;;;;;;0.53;0.27;;;;;;;3.59;100.00;98746.41;5113239;28;20220;-62
2022/11/22 06:22:26;;;;;;;0.37;0.37;;;;;;;3.70;100.00;98748.44;5114397;27;20638;-57
2022/11/22 06:24:53;;;;;;;0.20;0.20;;;;;;;3.73;100.00;98744.03;5114272;28;20573;-62
2022/11/22 06:27:20;;;;;;;0.20;0.20;;;;;;;3.74;100.00;98752.44;5114413;28;20566;-62
2022/11/22 06:29:46;;;;;;;0.23;0.23;;;;;;;3.79;100.00;98758.91;5114478;27;20691;-62
2022/11/22 06:32:13;;;;;;;0.33;0.33;;;;;;;3.91;100.00;98761.72;5114077;28;20632;-57
2022/11/22 06:34:41;;;;;;;0.37;0.37;;;;;;;4.00;100.00;98756.19;5113948;28;20652;-62
2022/11/22 06:37:08;;;;;;;0.30;0.30;;;;;;;4.21;100.00;98762.66;5114264;28;20231;-57
2022/11/22 06:39:36;;;;;;;0.40;0.40;;;;;;;4.38;100.00;98776.16;5114017;28;20225;-63
2022/11/22 06:42:03;;;;;;;0.20;0.20;;;;;;;4.64;100.00;98780.69;5114056;28;20284;-64
2022/11/22 06:44:30;;;;;;;0.77;0.77;;;;;;;5.10;100.00;98801.03;5113672;28;20228;-63
2022/11/22 06:46:56;;;;;;;0.43;0.43;;;;;;;5.49;99.25;98802.25;5113705;28;20201;-62
2022/11/22 06:49:23;;;;;;;0.60;0.60;;;;;;;5.97;98.02;98802.94;5113746;28;20224;-57
2022/11/22 06:51:51;;;;;;;0.70;0.70;;;;;;;6.43;93.96;98802.78;5113663;28;20208;-63
2022/11/22 06:54:18;;;;;;;0.20;0.20;;;;;;;6.83;91.14;98807.16;5113548;28;20739;-63
2022/11/22 06:56:45;;;;;;;1.13;0.93;;;;;;;7.07;88.63;98794.66;5113681;28;20669;-57
2022/11/22 06:59:12;;;;;;;1.03;0.87;;;;;;;7.21;87.45;98808.16;5113724;28;20704;-63
2022/11/22 07:01:38;;;;;;;0.50;0.50;;;;;;;7.62;86.53;98822.50;5113536;28;20193;-57
2022/11/22 07:04:05;;;;;;;0.50;0.50;;;;;;;7.90;85.05;98820.72;5113564;28;20705;-57
2022/11/22 07:06:34;;;;;;;0.97;0.90;;;;;;;8.17;83.22;98812.97;5113725;28;20205;-57
2022/11/22 07:09:04;;;;;;;0.20;0.20;;;;;;;8.37;81.52;98819.28;5113406;28;20708;-57
2022/11/22 07:11:32;;;;;;;0.50;0.50;;;;;;;8.42;79.71;98829.19;5113266;28;20356;-63
2022/11/22 07:14:01;;;;;;;0.57;0.57;;;;;;;8.59;78.59;98823.78;5113676;28;20221;-63
2022/11/22 07:16:28;;;;;;;0.83;0.63;;;;;;;8.82;78.93;98830.66;5113252;28;20229;-63
2022/11/22 07:18:54;;;;;;;0.90;0.80;;;;;;;8.91;78.60;98828.41;5113487;28;20213;-63
2022/11/22 07:21:23;;;;;;;0.13;0.13;;;;;;;9.23;76.75;98823.59;5113075;28;20197;-57
2022/11/22 07:23:52;;;;;;;0.30;0.30;;;;;;;9.62;76.50;98827.56;5112904;28;20611;-63
2022/11/22 07:26:21;;;;;;;0.73;0.60;;;;;;;9.46;75.74;98824.50;5113052;27;20201;-57
2022/11/22 07:28:48;;;;;;;0.20;0.20;;;;;;;9.43;75.62;98817.88;5112978;28;20224;-63
2022/11/22 07:31:16;;;;;;;0.37;0.37;;;;;;;9.70;75.25;98809.94;5112600;28;20201;-57
2022/11/22 07:33:43;;;;;;;0.47;0.40;;;;;;;9.76;74.35;98813.78;5113020;27;20225;-64
2022/11/22 07:36:12;;;;;;;0.93;0.60;;;;;;;9.75;73.02;98800.22;5113093;28;20221;-57
2022/11/22 07:38:39;;;;;;;0.80;0.80;;;;;;;9.94;73.44;98803.97;5113152;27;20255;-64
2022/11/22 07:41:07;;;;;;;0.60;0.60;;;;;;;10.21;72.20;98806.22;5113060;28;20205;-64
2022/11/22 07:43:35;;;;;;;1.43;1.23;;;;;;;10.32;71.09;98808.78;5112854;28;20213;-57
2022/11/22 07:46:04;;;;;;;0.63;0.47;;;;;;;10.16;70.96;98805.75;5112847;28;20634;-57
2022/11/22 07:48:31;;;;;;;0.50;0.50;;;;;;;10.48;70.90;98795.66;5112601;28;20221;-57
2022/11/22 07:51:03;;;;;;;0.73;0.73;;;;;;;11.00;70.50;98798.50;5112560;28;20212;-57
2022/11/22 07:53:30;;;;;;;0.53;0.40;;;;;;;11.30;67.64;98801.16;5112721;28;20228;-57
2022/11/22 07:56:01;;;;;;;0.93;0.63;;;;;;;11.29;65.74;98804.66;5112504;28;20256;-63
2022/11/22 07:58:27;;;;;;;0.83;0.63;;;;;;;11.48;66.48;98804.00;5112668;28;20221;-58
2022/11/22 08:00:56;;;;;;;0.57;0.57;;;;;;;11.48;66.51;98796.31;5112425;28;20219;-58
2022/11/22 08:03:22;;;;;;;0.87;0.87;;;;;;;11.85;64.77;98785.69;5112236;28;20217;-63
2022/11/22 08:05:49;;;;;;;1.07;0.53;;;;;;;12.05;62.16;98785.78;5112126;28;20197;-57
2022/11/22 08:08:16;;;;;;;2.13;0.60;;;;;;;12.56;60.92;98779.75;5112474;28;20606;-63
2022/11/22 08:10:44;;;;;;;0.80;0.57;;;;;;;12.68;58.91;98784.66;5112308;28;20194;-58
2022/11/22 08:13:11;;;;;;;0.63;0.53;;;;;;;13.10;59.25;98783.66;5112218;28;20345;-63
2022/11/22 08:15:38;;;;;;;1.40;0.90;;;;;;;13.58;58.17;98788.81;5111920;28;20244;-63
2022/11/22 08:18:06;;;;;;;0.50;0.50;;;;;;;14.14;56.21;98789.75;5112074;28;20226;-58
2022/11/22 08:20:33;;;;;;;1.27;0.80;;;;;;;14.53;54.95;98787.03;5112145;28;20199;-58
2022/11/22 08:22:59;;;;;;;1.97;1.07;;;;;;;14.34;53.25;98789.66;5112159;28;20645;-58
2022/11/22 10:00:08;;;;;;;0.97;0.70;;;;;;;15.55;46.37;98713.75;5110605;28;20333;-58
2022/11/22 10:02:41;;;;;;;0.50;0.50;;;;;;;15.93;47.96;98707.38;5110338;28;20198;-58
2022/11/22 10:05:17;;;;;;;0.70;0.70;;;;;;;16.55;45.41;98701.13;5110555;28;20200;-62
2022/11/22 10:07:49;;;;;;;1.67;1.03;;;;;;;16.68;45.49;98691.16;5109909;28;20230;-64
2022/11/22 10:10:22;;;;;;;0.97;0.70;;;;;;;16.04;44.77;98686.47;5110223;28;20189;-58
2022/11/22 10:12:55;;;;;;;0.87;0.73;;;;;;;15.22;46.81;98690.34;5110232;28;20588;-64
2022/11/22 10:15:31;;;;;;;0.83;0.77;;;;;;;15.60;48.76;98681.41;5110072;28;20210;-64
2022/11/22 10:18:03;;;;;;;0.57;0.50;;;;;;;13.95;48.67;98669.81;5110400;28;20193;-64
2022/11/22 10:20:32;;;;;;;0.30;0.30;;;;;;;14.24;48.63;98661.94;5110196;28;20208;-64
2022/11/22 10:22:59;;;;;;;1.03;0.73;;;;;;;14.45;47.31;98659.09;5110297;28;20559;-58
2022/11/22 10:25:37;;;;;;;1.23;0.63;;;;;;;14.84;45.76;98658.84;5110080;28;20423;-64
2022/11/22 10:28:14;;;;;;;1.00;0.80;;;;;;;15.14;44.99;98665.34;5110191;28;20260;-64
2022/11/22 10:30:50;;;;;;;0.73;0.73;;;;;;;14.65;46.62;98662.38;5110021;28;20212;-58
2022/11/22 10:33:22;;;;;;;1.20;0.63;;;;;;;14.67;47.45;98668.19;5109880;28;20216;-64
2022/11/22 10:36:04;;;;;;;1.90;0.50;;;;;;;14.19;48.72;98665.91;5110106;28;20225;-58
2022/11/22 10:38:47;;;;;;;0.53;0.53;;;;;;;14.96;48.21;98656.03;5110266;28;20696;-64
2022/11/22 10:41:34;;;;;;;0.60;0.60;;;;;;;13.86;45.49;98657.00;5109893;28;20193;-58
2022/11/22 10:44:13;;;;;;;0.30;0.30;;;;;;;14.97;44.81;98658.47;5110177;28;20226;-59
2022/11/22 10:46:53;;;;;;;0.50;0.50;;;;;;;13.97;46.07;98639.63;5109863;28;20638;-63
2022/11/22 10:49:30;;;;;;;0.70;0.63;;;;;;;15.24;44.93;98628.38;5109530;28;20255;-58
2022/11/22 10:52:02;;;;;;;0.40;0.40;;;;;;;15.83;43.82;98624.22;5109819;28;20702;-58
2022/11/22 10:54:39;;;;;;;0.20;0.20;;;;;;;15.37;44.33;98618.50;5109791;28;20658;-64
2022/11/22 10:57:16;;;;;;;0.60;0.60;;;;;;;15.17;50.91;98621.25;5109972;28;20663;-59
2022/11/22 10:59:55;;;;;;;0.33;0.33;;;;;;;15.52;52.63;98622.09;5109677;28;20227;-63
2022/11/22 11:02:50;;;;;;;0.60;0.43;;;;;;;15.42;54.25;98626.56;5109852;28;20212;-58
2022/11/22 11:05:33;;;;;;;1.83;0.90;;;;;;;15.35;52.94;98615.25;5111595;28;20201;-63
2022/11/22 11:08:00;;;;;;;0.67;0.60;;;;;;;15.28;52.86;98611.69;5113631;28;20208;-59
2022/11/22 11:10:32;;;;;;;0.73;0.73;;;;;;;15.32;53.38;98610.41;5113358;28;20677;-58
2022/11/22 11:13:04;;;;;;;1.33;0.90;;;;;;;14.73;53.25;98604.22;5113236;28;20214;-63
2022/11/22 11:15:37;;;;;;;0.60;0.60;;;;;;;15.03;53.20;98601.22;5113497;28;20213;-63
2022/11/22 11:18:12;;;;;;;0.50;0.47;;;;;;;14.52;51.67;98602.78;5113281;28;20222;-63
2022/11/22 11:20:42;;;;;;;0.97;0.57;;;;;;;13.16;52.72;98613.69;5113281;27;20656;-58
2022/11/22 11:23:10;;;;;;;0.50;0.43;;;;;;;12.81;52.73;98609.97;5113110;28;20308;-64
2022/11/22 11:25:39;;;;;;;0.40;0.40;;;;;;;13.12;52.37;98602.91;5113401;27;20204;-64
2022/11/22 11:28:09;;;;;;;0.73;0.60;;;;;;;13.79;52.00;98595.91;5113381;28;20228;-64
2022/11/22 11:30:39;;;;;;;0.60;0.60;;;;;;;13.52;53.74;98599.25;5113021;27;20676;-58
2022/11/22 11:33:17;;;;;;;1.47;0.40;;;;;;;13.87;55.01;98602.09;5113111;28;20306;-64
2022/11/22 11:35:45;;;;;;;0.33;0.33;;;;;;;13.76;52.03;98591.06;5112988;28;20284;-58
2022/11/22 11:38:31;;;;;;;0.77;0.60;;;;;;;13.64;53.88;98594.75;5113025;28;20235;-59
2022/11/22 11:40:58;;;;;;;2.03;0.70;;;;;;;13.37;55.44;98592.97;5112790;28;20199;-59
2022/11/22 11:43:25;;;;;;;1.90;0.70;;;;;;;13.16;56.32;98593.16;5112748;28;20219;-63
2022/11/22 11:45:52;;;;;;;0.67;0.67;;;;;;;13.60;56.24;98603.69;5112888;28;20657;-59
2022/11/22 11:48:40;;;;;;;0.70;0.70;;;;;;;13.84;55.70;98613.47;5112692;27;20225;-58
2022/11/22 11:51:12;;;;;;;2.80;0.60;;;;;;;13.84;54.96;98612.66;5112742;28;20194;-59
2022/11/22 11:53:40;;;;;;;0.40;0.40;;;;;;;13.25;53.96;98622.31;5112747;28;20222;-58
2022/11/22 11:56:27;;;;;;;0.83;0.70;;;;;;;12.93;54.84;98618.31;5112682;28;20744;-64
2022/11/22 11:58:56;;;;;;;0.73;0.63;;;;;;;12.77;56.98;98611.19;5112417;28;20229;-58
2022/11/22 12:01:24;;;;;;;0.73;0.50;;;;;;;12.65;58.18;98605.41;5112508;28;20285;-63
2022/11/22 12:03:57;;;;;;;0.30;0.30;;;;;;;12.59;56.57;98605.09;5112712;28;20221;-64
2022/11/22 12:06:29;;;;;;;0.50;0.40;;;;;;;12.40;56.19;98611.88;5112176;28;20205;-58
2022/11/22 12:08:57;;;;;;;0.53;0.53;;;;;;;12.56;58.43;98620.78;5112390;28;20813;-64
2022/11/22 12:11:32;;;;;;;0.53;0.50;;;;;;;12.74;58.96;98629.44;5112229;28;20690;-64
2022/11/22 12:14:02;;;;;;;0.40;0.40;;;;;;;12.67;57.16;98636.84;5112756;28;20214;-64
2022/11/22 12:16:32;;;;;;;0.50;0.20;;;;;;;12.42;58.43;98634.78;5110778;28;20600;-59
2022/11/22 12:19:10;;;;;;;0.10;0.10;;;;;;;12.80;60.43;98639.13;5112579;28;20222;-64
2022/11/22 12:21:52;;;;;;;0.87;0.70;;;;;;;12.92;61.99;98632.09;5112071;28;20293;-64
2022/11/22 12:24:23;;;;;;;2.30;0.50;;;;;;;13.26;60.36;98624.75;5112601;28;20435;-58
2022/11/22 12:26:50;;;;;;;0.40;0.40;;;;;;;13.30;59.40;98620.97;5112192;28;20568;-58
2022/11/22 12:29:17;;;;;;;2.97;0.67;;;;;;;13.10;58.18;98615.06;5111912;28;20220;-64
2022/11/22 12:31:48;;;;;;;0.60;0.60;;;;;;;12.88;58.79;98611.03;5112159;28;20722;-65
2022/11/22 12:34:22;;;;;;;0.70;0.37;;;;;;;13.21;61.14;98601.25;5112619;28;20595;-65
2022/11/22 12:36:57;;;;;;;0.40;0.40;;;;;;;13.17;62.12;98589.63;5112106;28;20714;-58
2022/11/22 12:39:26;;;;;;;0.57;0.57;;;;;;;13.10;60.90;98594.50;5111774;28;20213;-58
2022/11/22 12:41:59;;;;;;;0.07;0.07;;;;;;;12.63;60.58;98588.53;5112174;28;20666;-64
2022/11/22 12:44:28;;;;;;;0.80;0.40;;;;;;;12.72;61.43;98584.34;5111736;28;20279;-64
2022/11/22 12:47:01;;;;;;;0.97;0.50;;;;;;;12.62;59.84;98584.31;5111522;28;20200;-64
2022/11/22 12:49:37;;;;;;;0.47;0.47;;;;;;;12.40;61.37;98575.97;5111468;28;20709;-64
2022/11/22 12:52:13;;;;;;;0.10;0.10;;;;;;;12.20;61.49;98574.34;5111670;28;20186;-65
2022/11/22 12:54:48;;;;;;;0.93;0.77;;;;;;;12.17;61.62;98574.63;5111650;28;20747;-64
2022/11/22 12:57:21;;;;;;;1.30;0.30;;;;;;;12.08;62.29;98560.03;5111468;28;20716;-64
2022/11/22 12:59:54;;;;;;;1.20;0.33;;;;;;;11.83;62.50;98556.97;5111604;27;20603;-58
2022/11/22 13:02:31;;;;;;;0.20;0.20;;;;;;;11.74;64.83;98544.97;5111228;28;20208;-58
2022/11/22 13:05:04;;;;;;;0.30;0.30;;;;;;;11.61;64.49;98541.84;5111259;28;20582;-59
2022/11/22 13:07:45;;;;;;;0.40;0.40;;;;;;;11.57;63.83;98546.41;5111007;28;20246;-64
2022/11/22 13:10:25;;;;;;;0.20;0.20;;;;;;;11.19;62.62;98534.28;5111594;28;20685;-58
2022/11/22 13:12:54;;;;;;;1.10;0.67;;;;;;;11.09;65.12;98532.50;5111200;28;20193;-63
2022/11/22 13:15:27;;;;;;;0.63;0.40;;;;;;;11.09;66.67;98531.69;5110994;28;20676;-63
2022/11/22 13:17:54;;;;;;;0.20;0.20;;;;;;;10.94;64.81;98530.38;5111144;28;20662;-58
2022/11/22 13:20:25;;;;;;;1.20;0.83;;;;;;;11.02;68.60;98543.34;5111089;28;20673;-58
2022/11/22 13:23:03;;;;;;;0.20;0.13;;;;;;;10.88;70.08;98540.22;5110969;28;20204;-63
2022/11/22 13:25:42;;;;;;;0.83;0.30;;;;;;;10.76;70.61;98530.16;5110865;28;20201;-63
2022/11/22 13:28:14;;;;;;;0.73;0.73;;;;;;;10.80;71.60;98526.44;5110535;27;20220;-63
2022/11/22 13:31:04;;;;;;;0.20;0.20;;;;;;;10.65;72.73;98524.19;5110892;28;20201;-58